Nearby METAR Reports

 

EGHI - Southampton Wx C, Hampshire, United Kingdom
Distance from station: SE 2mi, 3km
Updated: 24/09/2017 22:50
NOT Current
Light rain, Mostly cloudy
Light rain, Mostly cloudy
 Wind from ESE
Wind: ESE 1 mph , 2 km/h
Temperature: 15°C
Dew Point: 14°C
Humidity: 94%
Barometer: 1018 hPa
Summary: Light rain
Clouds: Mostly cloudy
Visibility: 5 miles , 8 km
Cloud details: Few Clouds 152 m
Mostly cloudy 853 m
2017/09/24 21:50 EGHI 242150Z 11001KT 8000 -RA FEW005 BKN028 15/14 Q1018
EGVP - Middle Wallop, Hampshire, United Kingdom
Distance from station: NW 14mi, 23km
Updated: 25/09/2017 00:50
Mostly cloudy
Mostly cloudy
 Wind from E
Wind: E 6 mph , 9 km/h
Temperature: 15°C
Dew Point: 14°C
Humidity: 94%
Barometer: 1018 hPa
Clouds: Mostly cloudy
Visibility: 2 miles , 3 km
Cloud details: Few Clouds 427 m
Mostly cloudy 1524 m
2017/09/24 23:50 EGVP 242350Z AUTO 08005KT 2500 // FEW014/// BKN050/// 15/14 Q1018
 
EGDM - Boscombe Down, Dorset, United Kingdom
Distance from station: NW 21mi, 34km
Updated: 25/09/2017 00:50
Mist, Mostly cloudy
Mist, Mostly cloudy
 Wind from ENE
Wind: ENE 1 mph , 2 km/h
Temperature: 14°C
Dew Point: 14°C
Humidity: 100%
Barometer: 1018 hPa
Summary: Mist
Clouds: Mostly cloudy
Visibility: 1 mile , 2 km
Cloud details: Few Clouds 91 m
Partly cloudy 701 m
Mostly cloudy 2134 m
2017/09/24 23:50 EGDM 242350Z AUTO 07001KT 1900 BR FEW003/// SCT023/// BKN070/// 14/14 Q1018 REDZ
EGHH - Bournemouth Airp, Dorset, United Kingdom
Distance from station: WSW 23mi, 38km
Updated: 24/09/2017 22:50
NOT Current
Mist, Drizzle, Mostly cloudy
Mist, Drizzle, Mostly cloudy
 Wind from N
Wind: N 2 mph , 4 km/h
Temperature: 15°C
Dew Point: 15°C
Humidity: 100%
Barometer: 1018 hPa
Summary: Mist, Drizzle
Clouds: Mostly cloudy
Visibility: 2 miles , 3 km
Cloud details: Few Clouds 274 m
Mostly cloudy 549 m
2017/09/24 21:50 EGHH 242150Z 36002KT 3000 BR DZ FEW009 BKN018 15/15 Q1018
 
EGVO - Odiham Raf, Hampshire, United Kingdom
Distance from station: NE 26mi, 42km
Updated: 25/09/2017 00:50
Light rain, Drizzle, Mostly cloudy
Light rain, Drizzle, Mostly cloudy
 Wind from ENE
Wind: ENE 3 mph , 6 km/h
Temperature: 14°C
Dew Point: 14°C
Humidity: 100%
Barometer: 1018 hPa
Summary: Light rain, Drizzle
Clouds: Mostly cloudy
Visibility: 5 miles , 8 km
Cloud details: Few Clouds 244 m
Mostly cloudy 701 m
Mostly cloudy 1250 m
2017/09/24 23:50 EGVO 242350Z AUTO 07003KT 8000 -RADZ FEW008/// BKN023/// BKN041/// 14/14 Q1018
EGLF - Farnborough, Hampshire, United Kingdom
Distance from station: NE 34mi, 56km
Updated: 24/09/2017 19:20
NOT Current
Light rain, Partly cloudy
Light rain, Partly cloudy
 Wind from ESE
Wind: ESE 5 mph , 7 km/h
Temperature: 16°C
Dew Point: 14°C
Humidity: 88%
Barometer: 1018 hPa
Summary: Light rain
Clouds: Partly cloudy
Visibility: 6 miles , 10 km
Cloud details: Partly cloudy 1097 m
2017/09/24 18:20 EGLF 241820Z 12004KT 9999 -RA SCT036 16/14 Q1018
 
EGDL - Lyneham Raf, Wiltshire, United Kingdom
Distance from station: NW 45mi, 72km
Updated: 21/06/2013 08:50
NOT Current
Mostly cloudy
Mostly cloudy
 Wind from WSW
Wind: WSW 9 mph , 15 km/h
Temperature: 14°C
Dew Point: 14°C
Humidity: 100%
Barometer: 1010 hPa
Clouds: Mostly cloudy
Cloud details: Mostly cloudy 61 m
Mostly cloudy 427 m
2013/06/21 07:50 EGDL 210750Z AUTO 25008KT //// // BKN002/// BKN014/// 14/14 Q1010
EGUB - Benson Raf, Oxfordshire, United Kingdom
Distance from station: NNE 47mi, 76km
Updated: 25/09/2017 00:50
Overcast
Overcast
 Wind from E
Wind: E 6 mph , 9 km/h
Temperature: 15°C
Dew Point: 13°C
Humidity: 88%
Barometer: 1018 hPa
Clouds: Overcast
Visibility: 5 miles , 8 km
Cloud details: Overcast 732 m
2017/09/24 23:50 EGUB 242350Z AUTO 10005KT 8000 // OVC024/// 15/13 Q1018
 
EGKA - Shoreham-By-Sea, West Sussex, United Kingdom
Distance from station: E 48mi, 77km
Updated: 24/09/2017 18:50
NOT Current
Clear
Clear
 Wind from ESE
Wind: ESE 10 mph , 17 km/h
Temperature: 18°C
Dew Point: 13°C
Humidity: 73%
Barometer: 1018 hPa
Summary: Clear
Visibility: greater than 7 miles , 10 km
2017/09/24 17:50 EGKA 241750Z 11009KT CAVOK 18/13 Q1018
EGVA - Fairford Raf, Gloucestershire, United Kingdom
Distance from station: NNW 51mi, 82km
Updated: 25/09/2017 00:59
Light rain, Overcast
Light rain, Overcast
 Wind from calm
Wind: Calm
Temperature: 15°C
Dew Point: 14°C
Humidity: 94%
Barometer: 1017.9 hPa
Summary: Light rain
Clouds: Overcast
Visibility: 6 miles , 10 km
Cloud details: Few Clouds 732 m
Overcast 1128 m
2017/09/24 23:59 EGVA 242359Z AUTO 00000KT 9999 -RA FEW024 OVC037 15/14 A3006 RMK AO2 RAB59 SLP181 $
 
EGDY - Yeovilton (navy), Somerset, United Kingdom
Distance from station: W 54mi, 87km
Updated: 25/09/2017 00:50
Mist, Mostly cloudy
Mist, Mostly cloudy
 Wind from NNW
Wind: NNW 1 mph , 2 km/h
Temperature: 15°C
Dew Point: 15°C
Humidity: 100%
Barometer: 1018 hPa
Summary: Mist
Clouds: Mostly cloudy
Visibility: 4 miles , 6 km
Cloud details: Mostly cloudy 518 m
Mostly cloudy 701 m
2017/09/24 23:50 EGDY 242350Z AUTO 34001KT 6000 BR BKN017/// BKN023/// 15/15 Q1018
EGKK - London/Gatwick A, West Sussex, United Kingdom
Distance from station: ENE 54mi, 87km
Updated: 25/09/2017 01:20
Mostly cloudy
Mostly cloudy
 Wind from E
Wind: E 5 mph , 7 km/h
Temperature: 14°C
Dew Point: 14°C
Humidity: 100%
Barometer: 1018 hPa
Clouds: Mostly cloudy
Visibility: 4 miles , 6 km
Cloud details: Few Clouds 975 m
Partly cloudy 1219 m
Mostly cloudy 1433 m
2017/09/25 00:20 EGKK 250020Z 08004KT 6000 FEW032 SCT040 BKN047 14/14 Q1018
 
EGLL - London/Heathrow, Middlesex, United Kingdom
Distance from station: NE 54mi, 87km
Updated: 25/09/2017 01:20
Mostly cloudy
Mostly cloudy
 Wind from ENE
Wind: ENE 5 mph , 7 km/h
Temperature: 15°C
Dew Point: 14°C
Humidity: 94%
Barometer: 1018 hPa
Clouds: Mostly cloudy
Visibility: 6 miles , 9 km
Cloud details: Partly cloudy 732 m
Mostly cloudy 1006 m
2017/09/25 00:20 EGLL 250020Z AUTO 06004KT 9000 SCT024 BKN033 15/14 Q1018 NOSIG
EGVN - Brize Norton Raf, Oxfordshire, United Kingdom
Distance from station: N 56mi, 90km
Updated: 25/09/2017 00:50
Mostly cloudy
Mostly cloudy
 Wind from E
Wind: E 3 mph , 6 km/h
Temperature: 15°C
Dew Point: 13°C
Humidity: 88%
Barometer: 1018 hPa
Clouds: Mostly cloudy
Visibility: 6 miles , 10 km
Cloud details: Mostly cloudy 1036 m
2017/09/24 23:50 EGVN 242350Z 10003KT 9999 BKN034 15/13 Q1018 BECMG 6000 BR
 
EGWU - Northolt Raf, Middlesex, United Kingdom
Distance from station: NE 58mi, 93km
Updated: 25/09/2017 00:50
Mostly cloudy
Mostly cloudy
 Wind from SE
Wind: SE 6 mph , 9 km/h
Temperature: 15°C
Dew Point: 14°C
Humidity: 94%
Barometer: 1018 hPa
Clouds: Mostly cloudy
Visibility: 2 miles , 3 km
Cloud details: Few Clouds 640 m
Mostly cloudy 1219 m
2017/09/24 23:50 EGWU 242350Z AUTO 13005KT 2700 // FEW021/// BKN040/// 15/14 Q1018
EGGD - Bristol/Lulsgate, Somerset, United Kingdom
Distance from station: WNW 64mi, 103km
Updated: 25/09/2017 01:20
Mist, Overcast
Mist, Overcast
 Wind from SSE
Wind: SSE 3 mph , 6 km/h
Temperature: 15°C
Dew Point: 15°C
Humidity: 100%
Barometer: 1018 hPa
Summary: Mist
Clouds: Overcast
Visibility: 3 miles , 5 km
Cloud details: Mostly cloudy 91 m
Overcast 945 m
2017/09/25 00:20 EGGD 250020Z AUTO 16003KT 5000 BR BKN003 OVC031 15/15 Q1018
 
EGKB - Biggin Hill, Kent,United Kingdom
Distance from station: ENE 65mi, 105km
Updated: 24/09/2017 21:20
NOT Current
Light rain, Partly cloudy
Light rain, Partly cloudy
 Wind from varies
Wind: varies 2 mph , 4 km/h
Temperature: 15°C
Dew Point: 13°C
Humidity: 88%
Barometer: 1020 hPa
Summary: Light rain
Clouds: Partly cloudy
Visibility: 6 miles , 10 km
Cloud details: Partly cloudy 1372 m
2017/09/24 20:20 EGKB 242020Z VRB02KT 9999 -RA SCT045 15/13 Q1020
EGLC - London City Airp, Greater London, United Kingdom
Distance from station: ENE 72mi, 116km
Updated: 25/09/2017 01:20
Haze, Clear
Haze, Clear
 Wind from NE
Wind: NE 3 mph , 6 km/h
Temperature: 16°C
Dew Point: 15°C
Humidity: 94%
Barometer: 1019 hPa
Summary: Haze
Clouds: Clear
Visibility: 2 miles , 3 km
2017/09/25 00:20 EGLC 250020Z AUTO 04003KT 3000 HZ NCD 16/15 Q1019
 
EGBJ - Staverton, Northamptonshire, United Kingdom
Distance from station: NNW 73mi, 117km
Updated: 24/09/2017 19:20
NOT Current
Nearby showers, Partly cloudy
Nearby showers, Partly cloudy
 Wind from SSE
Wind: SSE 5 mph , 7 km/h
Temperature: 18°C
Dew Point: 15°C
Humidity: 83%
Barometer: 1017 hPa
Summary: Nearby Showers
Clouds: Partly cloudy
Visibility: 6 miles , 10 km
Cloud details: Few Clouds 914 m
Partly cloudy 1158 m
2017/09/24 18:20 EGBJ 241820Z 16004KT 9999 VCSH FEW030 SCT038 18/15 Q1017
EGGW - Luton Airport, Bedfordshire, United Kingdom
Distance from station: NE 76mi, 122km
Updated: 25/09/2017 01:20
Haze, Mostly cloudy
Haze, Mostly cloudy
 Wind from SE
Wind: SE 3 mph , 6 km/h
Temperature: 15°C
Dew Point: 14°C
Humidity: 94%
Barometer: 1019 hPa
Summary: Haze
Clouds: Mostly cloudy
Visibility: 2 miles , 3 km
Cloud details: Mostly cloudy 1341 m
2017/09/25 00:20 EGGW 250020Z AUTO 13003KT 3200 HZ BKN044 15/14 Q1019